createdAt,value
2022-10-16T00:00:14.561Z,14.06
2022-10-16T00:10:23.667Z,13.93
2022-10-16T00:20:25.418Z,13.89
2022-10-16T00:30:28.942Z,13.85
2022-10-16T00:40:30.623Z,13.85
2022-10-16T00:50:35.681Z,13.75
2022-10-16T01:00:37.329Z,13.74
2022-10-16T01:10:58.227Z,13.66
2022-10-16T01:21:05.902Z,13.50
2022-10-16T01:31:12.819Z,13.29
2022-10-16T01:41:20.433Z,12.92
2022-10-16T01:51:24.340Z,12.43
2022-10-16T02:01:31.050Z,11.95
2022-10-16T02:11:32.758Z,11.59
2022-10-16T02:21:50.558Z,11.33
2022-10-16T02:31:59.255Z,11.01
2022-10-16T02:42:02.330Z,10.80
2022-10-16T02:52:04.116Z,10.56
2022-10-16T03:02:05.858Z,10.47
2022-10-16T03:12:07.900Z,10.39
2022-10-16T03:22:09.692Z,10.06
2022-10-16T03:32:11.419Z,9.92
2022-10-16T03:42:13.737Z,9.79
2022-10-16T04:02:20.927Z,9.60
2022-10-16T04:12:22.612Z,9.43
2022-10-16T04:22:24.254Z,9.26
2022-10-16T04:32:26.401Z,9.18
2022-10-16T04:42:28.162Z,9.24
2022-10-16T04:52:30.498Z,8.98
2022-10-16T05:02:32.764Z,8.87
2022-10-16T05:12:34.469Z,8.96
2022-10-16T05:22:36.157Z,8.89
2022-10-16T05:32:38.429Z,9.07
2022-10-16T05:42:48.392Z,9.20
2022-10-16T05:52:56.873Z,9.35
2022-10-16T06:02:59.526Z,9.91
2022-10-16T06:13:01.764Z,10.37
2022-10-16T06:23:05.367Z,10.83
2022-10-16T06:33:07.114Z,11.17
2022-10-16T06:43:11.902Z,11.48
2022-10-16T06:53:15.561Z,11.75
2022-10-16T07:03:22.355Z,12.12
2022-10-16T07:13:24.068Z,12.50
2022-10-16T07:23:27.166Z,12.69
2022-10-16T07:33:34.580Z,13.11
2022-10-16T07:43:36.629Z,13.14
2022-10-16T07:53:39.083Z,13.96
2022-10-16T08:03:46.481Z,14.90
2022-10-16T08:13:48.172Z,15.58
2022-10-16T08:23:54.995Z,16.33
2022-10-16T08:34:00.152Z,16.68
2022-10-16T08:44:31.208Z,17.48
2022-10-16T08:54:46.120Z,18.00
2022-10-16T09:05:00.108Z,18.49
2022-10-16T09:15:25.928Z,19.07
2022-10-16T09:25:29.572Z,19.62
2022-10-16T09:35:44.945Z,20.30
2022-10-16T09:46:00.311Z,21.79
2022-10-16T09:56:05.168Z,22.22
2022-10-16T10:06:32.717Z,22.19
2022-10-16T10:16:39.459Z,23.95
2022-10-16T10:27:03.677Z,24.08
2022-10-16T10:37:43.397Z,25.10
2022-10-16T10:48:07.473Z,26.37
2022-10-16T10:58:31.032Z,27.03
2022-10-16T11:08:43.814Z,28.46
2022-10-16T11:19:12.223Z,27.81
2022-10-16T11:29:26.256Z,28.81
2022-10-16T11:39:29.298Z,29.21
2022-10-16T11:49:34.671Z,31.02
2022-10-16T11:59:49.822Z,31.87
2022-10-16T12:10:09.982Z,31.23
2022-10-16T12:20:15.013Z,29.77
2022-10-16T12:30:24.612Z,33.15
2022-10-16T12:40:35.577Z,33.44
2022-10-16T12:50:40.419Z,32.84
2022-10-16T13:01:16.576Z,31.50
2022-10-16T13:11:26.398Z,33.58
2022-10-16T13:21:39.857Z,33.44
2022-10-16T13:31:41.627Z,35.51
2022-10-16T13:41:43.533Z,34.77
2022-10-16T13:52:17.857Z,37.08
2022-10-16T14:02:36.307Z,34.50
2022-10-16T14:12:40.997Z,32.38
2022-10-16T14:22:43.884Z,31.91
2022-10-16T14:33:03.872Z,32.79
2022-10-16T14:43:06.792Z,23.47
2022-10-16T14:53:13.482Z,21.74
2022-10-16T15:03:48.114Z,20.63
2022-10-16T15:14:17.889Z,20.07
2022-10-16T15:24:27.905Z,19.61
2022-10-16T15:34:39.475Z,18.88
2022-10-16T15:44:48.920Z,18.70
2022-10-16T15:54:53.468Z,18.13
2022-10-16T16:04:57.483Z,17.53
2022-10-16T16:15:03.557Z,16.95
2022-10-16T16:25:07.844Z,16.42
2022-10-16T16:35:09.917Z,16.05
2022-10-16T16:45:11.647Z,15.66
2022-10-16T16:55:13.302Z,15.43
2022-10-16T17:05:15.285Z,15.12
2022-10-16T17:15:17.295Z,14.93
2022-10-16T17:25:24.935Z,14.86
2022-10-16T17:35:44.909Z,14.69
2022-10-16T17:45:48.510Z,14.56
2022-10-16T17:55:52.799Z,14.39
2022-10-16T18:05:56.946Z,14.22
2022-10-16T18:16:11.459Z,14.26
2022-10-16T18:26:19.778Z,14.26
2022-10-16T18:36:35.430Z,14.10
2022-10-16T18:46:45.879Z,13.72
2022-10-16T18:56:53.922Z,13.37
2022-10-16T19:06:56.678Z,13.28
2022-10-16T19:17:00.842Z,13.16
2022-10-16T19:27:02.637Z,12.88
2022-10-16T19:37:06.009Z,12.66
2022-10-16T19:47:19.615Z,12.58
2022-10-16T19:57:25.619Z,12.39
2022-10-16T20:07:29.215Z,12.13
2022-10-16T20:17:33.374Z,12.05
2022-10-16T20:27:35.002Z,12.08
2022-10-16T20:37:36.636Z,11.85
2022-10-16T20:47:38.289Z,11.83
2022-10-16T20:57:41.496Z,11.67
2022-10-16T21:07:42.951Z,11.55
2022-10-16T21:17:45.568Z,11.44
2022-10-16T21:27:47.531Z,11.38
2022-10-16T21:37:50.288Z,11.11
2022-10-16T21:47:52.018Z,11.03
2022-10-16T21:57:53.781Z,10.83
2022-10-16T22:07:55.359Z,10.76
2022-10-16T22:17:56.919Z,10.59
2022-10-16T22:27:58.495Z,10.34
2022-10-16T22:38:00.219Z,10.29
2022-10-16T22:48:02.814Z,10.12
2022-10-16T22:58:10.633Z,10.21
2022-10-16T23:08:13.197Z,9.98
2022-10-16T23:18:14.843Z,9.85
2022-10-16T23:28:16.511Z,9.72
2022-10-16T23:38:18.163Z,9.64
2022-10-16T23:48:20.094Z,9.59
2022-10-16T23:58:28.851Z,9.50
